Time;durP1;ratioP1;P1;durP2;ratioP2;P2;SDS_P1;SDS_P2;PMS_P1;PMS_P2;Temp;Humidity;BMP_temperature;BMP_pressure;BME280_temperature;BME280_humidity;BME280_pressure;Samples;Min_cycle;Max_cycle;Signal;HPM_P1;HPM_P2
2023/05/27 00:01:16;;;;;;;;;;;;;;;;;;7366327;19;857;-59
2023/05/27 00:03:45;;;;;;;;;;;;;;;;;;7366984;19;834;-58
2023/05/27 00:06:13;;;;;;;;;;;;;;;;;;7366086;19;803;-56
2023/05/27 00:08:41;;;;;;;;;;;;;;;;;;7363928;19;1270;-63
2023/05/27 00:11:09;;;;;;;;;;;;;;;;;;7365993;19;818;-62
2023/05/27 00:13:37;;;;;;;;;;;;;;;;;;7365867;19;862;-63
2023/05/27 00:16:05;;;;;;;;;;;;;;;;;;7365375;19;864;-63
2023/05/27 00:18:35;;;;;;;;;;;;;;;;;;7363466;19;1258;-63
2023/05/27 00:21:04;;;;;;;;;;;;;;;;;;7366033;19;812;-62
2023/05/27 00:23:32;;;;;;;;;;;;;;;;;;7363145;19;1864;-62
2023/05/27 00:26:00;;;;;;;;;;;;;;;;;;7361252;19;858;-63
2023/05/27 00:28:31;;;;;;;;;;;;;;;;;;7355331;19;1314;-62
2023/05/27 00:30:59;;;;;;;;;;;;;;;;;;7358113;19;853;-62
2023/05/27 00:33:27;;;;;;;;;;;;;;;;;;7354370;19;828;-61
2023/05/27 00:35:55;;;;;;;;;;;;;;;;;;7356956;19;893;-62
2023/05/27 00:38:23;;;;;;;;;;;;;;;;;;7352854;19;1432;-59
2023/05/27 00:40:51;;;;;;;;;;;;;;;;;;7355679;19;823;-62
2023/05/27 00:43:20;;;;;;;;;;;;;;;;;;7354229;19;1838;-62
2023/05/27 00:45:48;;;;;;;;;;;;;;;;;;7356766;19;790;-62
2023/05/27 00:48:16;;;;;;;;;;;;;;;;;;7352874;19;1302;-63
2023/05/27 00:50:44;;;;;;;;;;;;;;;;;;7354909;19;747;-62
2023/05/27 00:53:12;;;;;;;;;;;;;;;;;;7355181;19;768;-61
2023/05/27 00:55:41;;;;;;;;;;;;;;;;;;7355043;19;900;-62
2023/05/27 00:58:09;;;;;;;;;;;;;;;;;;7353222;19;1365;-62
2023/05/27 01:00:38;;;;;;;;;;;;;;;;;;7354102;19;803;-60
2023/05/27 01:03:07;;;;;;;;;;;;;;;;;;7354044;19;1853;-62
2023/05/27 01:05:35;;;;;;;;;;;;;;;;;;7354763;19;774;-62
2023/05/27 01:08:03;;;;;;;;;;;;;;;;;;7354553;19;1270;-62
2023/05/27 01:10:31;;;;;;;;;;;;;;;;;;7354461;19;748;-62
2023/05/27 01:12:59;;;;;;;;;;;;;;;;;;7354305;19;831;-61
2023/05/27 01:15:28;;;;;;;;;;;;;;;;;;7355437;19;855;-60
2023/05/27 01:17:57;;;;;;;;;;;;;;;;;;7354147;19;1317;-62
2023/05/27 01:20:25;;;;;;;;;;;;;;;;;;7353969;19;823;-62
2023/05/27 01:22:57;;;;;;;;;;;;;;;;;;7354152;19;1852;-62
2023/05/27 01:25:25;;;;;;;;;;;;;;;;;;7362448;19;767;-59
2023/05/27 01:27:55;;;;;;;;;;;;;;;;;;7360499;19;1359;-62
2023/05/27 01:30:24;;;;;;;;;;;;;;;;;;7362126;19;767;-60
2023/05/27 01:32:52;;;;;;;;;;;;;;;;;;7363235;19;779;-62
2023/05/27 01:35:20;;;;;;;;;;;;;;;;;;7361608;19;878;-62
2023/05/27 01:37:48;;;;;;;;;;;;;;;;;;7362640;19;1286;-61
2023/05/27 01:40:17;;;;;;;;;;;;;;;;;;7362777;19;806;-61
2023/05/27 01:42:45;;;;;;;;;;;;;;;;;;7361837;19;1847;-60
2023/05/27 01:45:13;;;;;;;;;;;;;;;;;;7366357;19;810;-62
2023/05/27 01:47:42;;;;;;;;;;;;;;;;;;7368494;19;1271;-62
2023/05/27 01:50:10;;;;;;;;;;;;;;;;;;7369664;19;812;-62
2023/05/27 01:52:38;;;;;;;;;;;;;;;;;;7367576;19;807;-62
2023/05/27 01:55:07;;;;;;;;;;;;;;;;;;7367594;19;850;-61
2023/05/27 01:57:36;;;;;;;;;;;;;;;;;;7367793;19;1335;-62
2023/05/27 02:00:04;;;;;;;;;;;;;;;;;;7367750;19;807;-62
2023/05/27 02:02:33;;;;;;;;;;;;;;;;;;7367198;19;1853;-63
2023/05/27 02:05:02;;;;;;;;;;;;;;;;;;7368621;19;802;-62
2023/05/27 02:07:30;;;;;;;;;;;;;;;;;;7369115;19;1340;-60
2023/05/27 02:09:58;;;;;;;;;;;;;;;;;;7368249;19;796;-62
2023/05/27 02:12:26;;;;;;;;;;;;;;;;;;7366771;19;747;-62
2023/05/27 02:14:56;;;;;;;;;;;;;;;;;;7367576;19;806;-60
2023/05/27 02:17:24;;;;;;;;;;;;;;;;;;7368542;19;795;-59
2023/05/27 02:19:52;;;;;;;;;;;;;;;;;;7363789;19;1279;-61
2023/05/27 02:22:20;;;;;;;;;;;;;;;;;;7367892;19;1849;-61
2023/05/27 02:24:48;;;;;;;;;;;;;;;;;;7367275;19;827;-62
2023/05/27 02:27:16;;;;;;;;;;;;;;;;;;7366725;19;846;-61
2023/05/27 02:29:45;;;;;;;;;;;;;;;;;;7366268;19;1237;-61
2023/05/27 02:32:13;;;;;;;;;;;;;;;;;;7368011;19;822;-62
2023/05/27 02:34:44;;;;;;;;;;;;;;;;;;7367485;19;780;-60
2023/05/27 02:37:13;;;;;;;;;;;;;;;;;;7367491;19;809;-62
2023/05/27 02:39:41;;;;;;;;;;;;;;;;;;7366200;19;1386;-61
2023/05/27 02:42:09;;;;;;;;;;;;;;;;;;7359485;19;1850;-61
2023/05/27 02:44:38;;;;;;;;;;;;;;;;;;7360480;19;822;-62
2023/05/27 02:47:06;;;;;;;;;;;;;;;;;;7358472;19;796;-62
2023/05/27 02:49:35;;;;;;;;;;;;;;;;;;7363680;19;1302;-61
2023/05/27 02:52:04;;;;;;;;;;;;;;;;;;7368685;19;850;-62
2023/05/27 02:54:32;;;;;;;;;;;;;;;;;;7368574;19;849;-62
2023/05/27 02:57:00;;;;;;;;;;;;;;;;;;7364690;19;818;-62
2023/05/27 02:59:28;;;;;;;;;;;;;;;;;;7364606;19;1291;-62
2023/05/27 03:01:56;;;;;;;;;;;;;;;;;;7366226;19;835;-62
2023/05/27 03:04:25;;;;;;;;;;;;;;;;;;7364666;19;1855;-62
2023/05/27 03:06:54;;;;;;;;;;;;;;;;;;7367569;19;854;-62
2023/05/27 03:09:22;;;;;;;;;;;;;;;;;;7367199;19;1490;-62
2023/05/27 03:11:50;;;;;;;;;;;;;;;;;;7366460;19;783;-62
2023/05/27 03:14:18;;;;;;;;;;;;;;;;;;7365606;19;820;-63
2023/05/27 03:16:46;;;;;;;;;;;;;;;;;;7367362;19;803;-62
2023/05/27 03:19:15;;;;;;;;;;;;;;;;;;7364911;19;1281;-63
2023/05/27 03:21:43;;;;;;;;;;;;;;;;;;7367205;19;819;-61
2023/05/27 03:24:11;;;;;;;;;;;;;;;;;;7363664;19;1841;-63
2023/05/27 03:26:39;;;;;;;;;;;;;;;;;;7365238;19;838;-63
2023/05/27 03:29:08;;;;;;;;;;;;;;;;;;7364964;19;1293;-63
2023/05/27 03:31:36;;;;;;;;;;;;;;;;;;7365660;19;776;-62
2023/05/27 03:34:09;;;;;;;;;;;;;;;;;;7365519;19;814;-62
2023/05/27 03:36:38;;;;;;;;;;;;;;;;;;7366167;19;899;-61
2023/05/27 03:39:07;;;;;;;;;;;;;;;;;;7362880;19;1290;-61
2023/05/27 03:41:36;;;;;;;;;;;;;;;;;;7364080;19;881;-62
2023/05/27 03:44:05;;;;;;;;;;;;;;;;;;7363679;19;1842;-60
2023/05/27 03:46:33;;;;;;;;;;;;;;;;;;7368452;19;1028;-61
2023/05/27 03:49:02;;;;;;;;;;;;;;;;;;7362942;19;1297;-62
2023/05/27 03:51:31;;;;;;;;;;;;;;;;;;7364718;19;836;-62
2023/05/27 03:53:59;;;;;;;;;;;;;;;;;;7368307;19;1057;-62
2023/05/27 03:56:28;;;;;;;;;;;;;;;;;;7364027;19;834;-62
2023/05/27 03:58:56;;;;;;;;;;;;;;;;;;7364170;19;1328;-59
2023/05/27 04:01:24;;;;;;;;;;;;;;;;;;7366572;19;826;-60
2023/05/27 04:03:52;;;;;;;;;;;;;;;;;;7362752;19;1860;-61
2023/05/27 04:06:20;;;;;;;;;;;;;;;;;;7358665;19;842;-61
2023/05/27 04:08:48;;;;;;;;;;;;;;;;;;7355958;19;1250;-61
2023/05/27 04:11:17;;;;;;;;;;;;;;;;;;7357107;19;827;-63
2023/05/27 04:13:46;;;;;;;;;;;;;;;;;;7366502;19;818;-62
2023/05/27 04:16:15;;;;;;;;;;;;;;;;;;7365993;19;843;-60
2023/05/27 04:18:48;;;;;;;;;;;;;;;;;;7361603;19;1369;-62
2023/05/27 04:21:16;;;;;;;;;;;;;;;;;;7364121;19;865;-62
2023/05/27 04:23:45;;;;;;;;;;;;;;;;;;7364074;19;1846;-62
2023/05/27 04:26:14;;;;;;;;;;;;;;;;;;7364423;19;800;-61
2023/05/27 04:28:46;;;;;;;;;;;;;;;;;;7362243;19;1302;-62
2023/05/27 04:31:15;;;;;;;;;;;;;;;;;;7363837;19;859;-62
2023/05/27 04:33:54;;;;;;;;;;;;;;;;;;7364017;19;720;-61
2023/05/27 04:36:26;;;;;;;;;;;;;;;;;;7364814;19;733;-62
2023/05/27 04:39:04;;;;;;;;;;;;;;;;;;7361267;19;1321;-61
2023/05/27 04:41:34;;;;;;;;;;;;;;;;;;7363991;19;776;-61
2023/05/27 04:44:26;;;;;;;;;;;;;;;;;;7361314;19;1839;-62
2023/05/27 04:46:55;;;;;;;;;;;;;;;;;;7364069;19;755;-62
2023/05/27 04:49:24;;;;;;;;;;;;;;;;;;7360282;19;1359;-62
2023/05/27 04:51:52;;;;;;;;;;;;;;;;;;7364315;19;802;-62
2023/05/27 04:54:22;;;;;;;;;;;;;;;;;;7362070;19;895;-63
2023/05/27 04:56:51;;;;;;;;;;;;;;;;;;7363227;19;862;-63
2023/05/27 04:59:29;;;;;;;;;;;;;;;;;;7360355;19;1337;-62
2023/05/27 05:02:21;;;;;;;;;;;;;;;;;;7362781;19;811;-62
2023/05/27 05:04:58;;;;;;;;;;;;;;;;;;7359834;19;1870;-61
2023/05/27 05:07:26;;;;;;;;;;;;;;;;;;7363264;19;855;-63
2023/05/27 05:09:55;;;;;;;;;;;;;;;;;;7357953;19;1383;-62
2023/05/27 05:12:30;;;;;;;;;;;;;;;;;;7361483;19;794;-62
2023/05/27 05:14:58;;;;;;;;;;;;;;;;;;7364420;19;787;-63
2023/05/27 05:17:26;;;;;;;;;;;;;;;;;;7362520;19;936;-63
2023/05/27 05:19:54;;;;;;;;;;;;;;;;;;7357151;19;1392;-62
2023/05/27 05:22:23;;;;;;;;;;;;;;;;;;7362431;19;825;-62
2023/05/27 05:24:52;;;;;;;;;;;;;;;;;;7360013;19;1853;-63
2023/05/27 05:27:26;;;;;;;;;;;;;;;;;;7363648;19;792;-63
2023/05/27 05:29:54;;;;;;;;;;;;;;;;;;7357138;19;1386;-63
2023/05/27 05:32:22;;;;;;;;;;;;;;;;;;7361425;19;790;-62
2023/05/27 05:34:50;;;;;;;;;;;;;;;;;;7361149;19;890;-63
2023/05/27 05:37:19;;;;;;;;;;;;;;;;;;7361227;19;980;-61
2023/05/27 05:39:49;;;;;;;;;;;;;;;;;;7358553;19;1281;-61
2023/05/27 05:42:17;;;;;;;;;;;;;;;;;;7360799;19;849;-62
2023/05/27 05:44:46;;;;;;;;;;;;;;;;;;7359515;19;1863;-61
2023/05/27 05:47:14;;;;;;;;;;;;;;;;;;7361821;19;857;-63
2023/05/27 05:49:44;;;;;;;;;;;;;;;;;;7357548;19;1464;-64
2023/05/27 05:52:14;;;;;;;;;;;;;;;;;;7360305;19;879;-63
2023/05/27 05:54:42;;;;;;;;;;;;;;;;;;7360895;19;782;-63
2023/05/27 05:57:10;;;;;;;;;;;;;;;;;;7361433;19;811;-63
2023/05/27 05:59:38;;;;;;;;;;;;;;;;;;7357322;19;1247;-63
2023/05/27 06:02:07;;;;;;;;;;;;;;;;;;7360677;19;803;-63
2023/05/27 06:04:35;;;;;;;;;;;;;;;;;;7358604;19;1845;-62
2023/05/27 06:07:03;;;;;;;;;;;;;;;;;;7359764;19;771;-64
2023/05/27 06:09:52;;;;;;;;;;;;;;;;;;7357617;19;1321;-61
2023/05/27 06:12:29;;;;;;;;;;;;;;;;;;7362912;19;748;-64
2023/05/27 06:14:57;;;;;;;;;;;;;;;;;;7360396;19;767;-63
2023/05/27 06:17:34;;;;;;;;;;;;;;;;;;7359889;19;1341;-63
2023/05/27 06:20:02;;;;;;;;;;;;;;;;;;7361772;19;791;-63
2023/05/27 06:22:30;;;;;;;;;;;;;;;;;;7359289;19;818;-63
2023/05/27 06:25:31;;;;;;;;;;;;;;;;;;7355685;19;1830;-63
2023/05/27 06:28:02;;;;;;;;;;;;;;;;;;7358574;19;1298;-63
2023/05/27 06:30:31;;;;;;;;;;;;;;;;;;7360289;19;780;-63
2023/05/27 06:32:59;;;;;;;;;;;;;;;;;;7366312;19;748;-62
2023/05/27 06:35:30;;;;;;;;;;;;;;;;;;7366714;19;873;-64
2023/05/27 06:37:59;;;;;;;;;;;;;;;;;;7363788;19;1239;-61
2023/05/27 06:40:27;;;;;;;;;;;;;;;;;;7366319;19;857;-64
2023/05/27 06:42:55;;;;;;;;;;;;;;;;;;7367138;19;835;-63
2023/05/27 06:45:39;;;;;;;;;;;;;;;;;;7364390;19;1862;-63
2023/05/27 06:48:29;;;;;;;;;;;;;;;;;;7364372;19;1365;-61
2023/05/27 06:50:58;;;;;;;;;;;;;;;;;;7366077;19;771;-63
2023/05/27 06:53:26;;;;;;;;;;;;;;;;;;7367317;19;850;-62
2023/05/27 06:56:17;;;;;;;;;;;;;;;;;;7366941;19;787;-63
2023/05/27 06:59:04;;;;;;;;;;;;;;;;;;7365960;19;1845;-64
2023/05/27 07:01:33;;;;;;;;;;;;;;;;;;7367500;19;908;-64
2023/05/27 07:04:03;;;;;;;;;;;;;;;;;;7365579;19;1854;-64
2023/05/27 07:06:41;;;;;;;;;;;;;;;;;;7366527;19;767;-63
2023/05/27 07:09:11;;;;;;;;;;;;;;;;;;7364147;19;1349;-64
2023/05/27 07:11:39;;;;;;;;;;;;;;;;;;7367578;19;866;-64
2023/05/27 07:14:12;;;;;;;;;;;;;;;;;;7365916;19;732;-62
2023/05/27 07:16:42;;;;;;;;;;;;;;;;;;7366595;19;820;-61
2023/05/27 07:19:11;;;;;;;;;;;;;;;;;;7363394;19;1282;-63
2023/05/27 07:21:48;;;;;;;;;;;;;;;;;;7365485;19;748;-63
2023/05/27 07:24:20;;;;;;;;;;;;;;;;;;7364957;19;1843;-64
2023/05/27 07:26:48;;;;;;;;;;;;;;;;;;7364999;19;807;-63
2023/05/27 07:29:16;;;;;;;;;;;;;;;;;;7362173;19;1361;-63
2023/05/27 07:31:54;;;;;;;;;;;;;;;;;;7366421;19;717;-62
2023/05/27 07:34:26;;;;;;;;;;;;;;;;;;7365638;19;804;-63
2023/05/27 07:36:55;;;;;;;;;;;;;;;;;;7367121;19;911;-63
2023/05/27 07:39:23;;;;;;;;;;;;;;;;;;7361751;19;1318;-63
2023/05/27 07:41:51;;;;;;;;;;;;;;;;;;7364955;19;720;-63
2023/05/27 07:44:20;;;;;;;;;;;;;;;;;;7363561;19;1833;-62
2023/05/27 07:46:48;;;;;;;;;;;;;;;;;;7364956;19;801;-63
2023/05/27 07:49:16;;;;;;;;;;;;;;;;;;7362131;19;1285;-65
2023/05/27 07:52:05;;;;;;;;;;;;;;;;;;7365088;19;1266;-61
2023/05/27 07:54:33;;;;;;;;;;;;;;;;;;7362253;19;799;-61
2023/05/27 07:57:01;;;;;;;;;;;;;;;;;;7361674;19;795;-65
2023/05/27 07:59:29;;;;;;;;;;;;;;;;;;7361423;19;1262;-62
2023/05/27 08:01:58;;;;;;;;;;;;;;;;;;7364026;19;953;-63
2023/05/27 08:04:26;;;;;;;;;;;;;;;;;;7363544;19;1859;-63
2023/05/27 08:07:11;;;;;;;;;;;;;;;;;;7364327;19;759;-64
2023/05/27 08:10:05;;;;;;;;;;;;;;;;;;7364838;19;1063;-63
2023/05/27 08:13:01;;;;;;;;;;;;;;;;;;7363830;19;806;-64
2023/05/27 08:15:40;;;;;;;;;;;;;;;;;;7365272;19;832;-61
2023/05/27 08:18:21;;;;;;;;;;;;;;;;;;7362484;19;1358;-64
2023/05/27 08:21:08;;;;;;;;;;;;;;;;;;7365134;19;791;-64
2023/05/27 08:23:50;;;;;;;;;;;;;;;;;;7364491;19;1857;-63
2023/05/27 08:26:32;;;;;;;;;;;;;;;;;;7364385;19;951;-63
2023/05/27 08:29:19;;;;;;;;;;;;;;;;;;7362781;19;1942;-64
2023/05/27 08:32:01;;;;;;;;;;;;;;;;;;7363520;19;822;-63
2023/05/27 08:34:29;;;;;;;;;;;;;;;;;;7364981;19;865;-63
2023/05/27 08:36:58;;;;;;;;;;;;;;;;;;7364443;19;835;-63
2023/05/27 08:39:27;;;;;;;;;;;;;;;;;;7359354;19;1322;-64
2023/05/27 08:42:18;;;;;;;;;;;;;;;;;;7364365;19;1275;-63
2023/05/27 08:44:46;;;;;;;;;;;;;;;;;;7362827;19;1845;-64
2023/05/27 08:47:15;;;;;;;;;;;;;;;;;;7365923;19;807;-63
2023/05/27 08:49:43;;;;;;;;;;;;;;;;;;7359741;19;1286;-64
2023/05/27 08:52:11;;;;;;;;;;;;;;;;;;7363265;19;764;-62
2023/05/27 08:54:41;;;;;;;;;;;;;;;;;;7361119;19;886;-64
2023/05/27 08:57:09;;;;;;;;;;;;;;;;;;7363988;19;870;-63
2023/05/27 08:59:37;;;;;;;;;;;;;;;;;;7358486;19;1300;-63
2023/05/27 09:02:05;;;;;;;;;;;;;;;;;;7362330;19;795;-65
2023/05/27 09:04:34;;;;;;;;;;;;;;;;;;7361611;19;1852;-64
2023/05/27 09:07:02;;;;;;;;;;;;;;;;;;7363913;19;940;-63
2023/05/27 09:09:30;;;;;;;;;;;;;;;;;;7360302;19;1313;-63
2023/05/27 09:11:59;;;;;;;;;;;;;;;;;;7363773;19;807;-60
2023/05/27 09:14:30;;;;;;;;;;;;;;;;;;7360384;19;1038;-63
2023/05/27 09:16:58;;;;;;;;;;;;;;;;;;7360724;19;839;-65
2023/05/27 09:19:26;;;;;;;;;;;;;;;;;;7360909;19;1273;-64
2023/05/27 09:21:54;;;;;;;;;;;;;;;;;;7363243;19;839;-64
2023/05/27 09:24:23;;;;;;;;;;;;;;;;;;7363613;19;1854;-64
2023/05/27 09:26:51;;;;;;;;;;;;;;;;;;7362906;19;791;-63
2023/05/27 09:29:19;;;;;;;;;;;;;;;;;;7360078;19;1835;-63
2023/05/27 09:31:47;;;;;;;;;;;;;;;;;;7362720;19;768;-63
2023/05/27 09:34:15;;;;;;;;;;;;;;;;;;7364291;19;777;-64
2023/05/27 09:36:43;;;;;;;;;;;;;;;;;;7363505;19;795;-63
2023/05/27 09:39:12;;;;;;;;;;;;;;;;;;7360911;19;1311;-62
2023/05/27 09:41:40;;;;;;;;;;;;;;;;;;7361110;19;768;-63
2023/05/27 09:44:08;;;;;;;;;;;;;;;;;;7363345;19;821;-63
2023/05/27 09:46:36;;;;;;;;;;;;;;;;;;7359532;19;1849;-63
2023/05/27 09:49:05;;;;;;;;;;;;;;;;;;7359536;19;1349;-62
2023/05/27 09:51:33;;;;;;;;;;;;;;;;;;7362590;19;834;-63
2023/05/27 09:54:01;;;;;;;;;;;;;;;;;;7362567;19;887;-64
2023/05/27 09:56:29;;;;;;;;;;;;;;;;;;7361963;19;837;-63
2023/05/27 09:58:58;;;;;;;;;;;;;;;;;;7359005;19;1348;-64
2023/05/27 10:01:28;;;;;;;;;;;;;;;;;;7362580;19;1141;-64
2023/05/27 10:03:56;;;;;;;;;;;;;;;;;;7361327;19;701;-66
2023/05/27 10:06:24;;;;;;;;;;;;;;;;;;7364450;19;1850;-63
2023/05/27 10:08:52;;;;;;;;;;;;;;;;;;7367323;19;1266;-62
2023/05/27 10:11:21;;;;;;;;;;;;;;;;;;7367706;19;822;-63
2023/05/27 10:13:49;;;;;;;;;;;;;;;;;;7369184;19;775;-63
2023/05/27 10:16:17;;;;;;;;;;;;;;;;;;7368430;19;819;-63
2023/05/27 10:18:47;;;;;;;;;;;;;;;;;;7367286;19;1285;-64
2023/05/27 10:21:15;;;;;;;;;;;;;;;;;;7368029;19;884;-63
2023/05/27 10:23:43;;;;;;;;;;;;;;;;;;7368734;19;801;-60
2023/05/27 10:26:11;;;;;;;;;;;;;;;;;;7367734;19;1835;-60
2023/05/27 10:28:40;;;;;;;;;;;;;;;;;;7367190;19;1274;-59
2023/05/27 10:31:09;;;;;;;;;;;;;;;;;;7368062;19;806;-62
2023/05/27 10:33:37;;;;;;;;;;;;;;;;;;7369602;19;815;-61
2023/05/27 10:36:05;;;;;;;;;;;;;;;;;;7363460;19;894;-62
2023/05/27 10:38:33;;;;;;;;;;;;;;;;;;7362105;19;1242;-59
2023/05/27 10:41:01;;;;;;;;;;;;;;;;;;7369342;19;820;-62
2023/05/27 10:43:29;;;;;;;;;;;;;;;;;;7367015;19;788;-63
2023/05/27 10:45:57;;;;;;;;;;;;;;;;;;7367534;19;1853;-59
2023/05/27 10:48:26;;;;;;;;;;;;;;;;;;7366354;19;1292;-63
2023/05/27 10:50:54;;;;;;;;;;;;;;;;;;7368023;19;793;-59
2023/05/27 10:53:22;;;;;;;;;;;;;;;;;;7368358;19;821;-64
2023/05/27 10:55:51;;;;;;;;;;;;;;;;;;7367737;19;1224;-64
2023/05/27 10:58:19;;;;;;;;;;;;;;;;;;7366035;19;1365;-64
2023/05/27 11:00:48;;;;;;;;;;;;;;;;;;7367330;19;770;-64
2023/05/27 11:03:16;;;;;;;;;;;;;;;;;;7368155;19;792;-62
2023/05/27 11:05:44;;;;;;;;;;;;;;;;;;7366773;19;1837;-64
2023/05/27 11:08:13;;;;;;;;;;;;;;;;;;7366272;19;1273;-64
2023/05/27 11:10:41;;;;;;;;;;;;;;;;;;7367564;19;826;-65
2023/05/27 11:13:09;;;;;;;;;;;;;;;;;;7367982;19;835;-65
2023/05/27 11:15:37;;;;;;;;;;;;;;;;;;7367528;19;838;-65
2023/05/27 11:18:05;;;;;;;;;;;;;;;;;;7364465;19;1277;-64
2023/05/27 11:20:34;;;;;;;;;;;;;;;;;;7366696;19;783;-64
2023/05/27 11:23:02;;;;;;;;;;;;;;;;;;7367212;19;835;-64
2023/05/27 11:25:30;;;;;;;;;;;;;;;;;;7366533;19;1849;-63
2023/05/27 11:27:58;;;;;;;;;;;;;;;;;;7365219;19;1297;-63
2023/05/27 11:30:27;;;;;;;;;;;;;;;;;;7366949;19;783;-64
2023/05/27 11:32:55;;;;;;;;;;;;;;;;;;7367345;19;866;-62
2023/05/27 11:35:23;;;;;;;;;;;;;;;;;;7367198;19;806;-62
2023/05/27 11:37:51;;;;;;;;;;;;;;;;;;7365725;19;1289;-64
2023/05/27 11:40:20;;;;;;;;;;;;;;;;;;7366214;19;866;-65
2023/05/27 11:42:49;;;;;;;;;;;;;;;;;;7366691;19;792;-65
2023/05/27 11:45:17;;;;;;;;;;;;;;;;;;7366782;19;1861;-65
2023/05/27 11:47:46;;;;;;;;;;;;;;;;;;7366003;19;1238;-65
2023/05/27 11:50:14;;;;;;;;;;;;;;;;;;7366816;19;787;-65
2023/05/27 11:52:42;;;;;;;;;;;;;;;;;;7365984;19;858;-64
2023/05/27 11:55:10;;;;;;;;;;;;;;;;;;7362838;19;877;-64
2023/05/27 11:57:39;;;;;;;;;;;;;;;;;;7361521;19;1351;-63
2023/05/27 12:00:07;;;;;;;;;;;;;;;;;;7366580;19;849;-64
2023/05/27 12:02:36;;;;;;;;;;;;;;;;;;7366408;19;910;-63
2023/05/27 12:05:06;;;;;;;;;;;;;;;;;;7365277;19;1838;-64
2023/05/27 12:07:35;;;;;;;;;;;;;;;;;;7365928;19;916;-62
2023/05/27 12:10:03;;;;;;;;;;;;;;;;;;7365287;19;813;-64
2023/05/27 12:12:33;;;;;;;;;;;;;;;;;;7363472;19;784;-64
2023/05/27 12:15:02;;;;;;;;;;;;;;;;;;7366168;19;657;-63
2023/05/27 12:17:30;;;;;;;;;;;;;;;;;;7365662;19;1011;-63
2023/05/27 12:19:58;;;;;;;;;;;;;;;;;;7362334;19;1337;-64
2023/05/27 12:22:26;;;;;;;;;;;;;;;;;;7364600;19;855;-63
2023/05/27 12:24:54;;;;;;;;;;;;;;;;;;7366070;19;784;-63
2023/05/27 12:27:22;;;;;;;;;;;;;;;;;;7361933;19;1848;-63
2023/05/27 12:29:51;;;;;;;;;;;;;;;;;;7359055;19;1324;-63
2023/05/27 12:32:19;;;;;;;;;;;;;;;;;;7365326;19;816;-62
2023/05/27 12:34:47;;;;;;;;;;;;;;;;;;7364993;19;865;-63
2023/05/27 12:37:16;;;;;;;;;;;;;;;;;;7365363;19;781;-63
2023/05/27 12:39:44;;;;;;;;;;;;;;;;;;7362215;19;1314;-63
2023/05/27 12:42:12;;;;;;;;;;;;;;;;;;7365476;19;836;-64
2023/05/27 12:44:40;;;;;;;;;;;;;;;;;;7365204;19;811;-63
2023/05/27 12:47:08;;;;;;;;;;;;;;;;;;7361008;19;1862;-64
2023/05/27 12:49:36;;;;;;;;;;;;;;;;;;7364719;19;1345;-62
2023/05/27 12:52:04;;;;;;;;;;;;;;;;;;7363681;19;879;-63
2023/05/27 12:54:33;;;;;;;;;;;;;;;;;;7365287;19;795;-63
2023/05/27 12:57:04;;;;;;;;;;;;;;;;;;7365009;19;921;-63
2023/05/27 12:59:33;;;;;;;;;;;;;;;;;;7361807;19;1330;-64
2023/05/27 13:02:01;;;;;;;;;;;;;;;;;;7363440;19;1240;-63
2023/05/27 13:04:29;;;;;;;;;;;;;;;;;;7365002;19;880;-64
2023/05/27 13:06:57;;;;;;;;;;;;;;;;;;7362810;19;1847;-63
2023/05/27 13:09:25;;;;;;;;;;;;;;;;;;7362369;19;1280;-63
2023/05/27 13:11:54;;;;;;;;;;;;;;;;;;7364778;19;829;-64
2023/05/27 13:14:22;;;;;;;;;;;;;;;;;;7363446;19;722;-61
2023/05/27 13:16:50;;;;;;;;;;;;;;;;;;7364875;19;780;-63
2023/05/27 13:19:18;;;;;;;;;;;;;;;;;;7361007;19;1317;-62
2023/05/27 13:21:46;;;;;;;;;;;;;;;;;;7364107;19;842;-61
2023/05/27 13:24:15;;;;;;;;;;;;;;;;;;7363497;19;833;-63
2023/05/27 13:26:43;;;;;;;;;;;;;;;;;;7360930;19;1844;-63
2023/05/27 13:29:11;;;;;;;;;;;;;;;;;;7360839;19;1258;-63
2023/05/27 13:31:40;;;;;;;;;;;;;;;;;;7363452;19;865;-63
2023/05/27 13:34:08;;;;;;;;;;;;;;;;;;7364107;19;898;-63
2023/05/27 13:36:36;;;;;;;;;;;;;;;;;;7363134;19;799;-63
2023/05/27 13:39:04;;;;;;;;;;;;;;;;;;7360489;19;1351;-62
2023/05/27 13:41:33;;;;;;;;;;;;;;;;;;7367639;19;875;-61
2023/05/27 13:44:01;;;;;;;;;;;;;;;;;;7369558;19;846;-62
2023/05/27 13:46:29;;;;;;;;;;;;;;;;;;7369170;19;1846;-63
2023/05/27 13:48:57;;;;;;;;;;;;;;;;;;7368151;19;1281;-64
2023/05/27 13:51:25;;;;;;;;;;;;;;;;;;7370052;19;865;-63
2023/05/27 13:53:53;;;;;;;;;;;;;;;;;;7369331;19;907;-63
2023/05/27 13:56:22;;;;;;;;;;;;;;;;;;7369202;19;825;-63
2023/05/27 13:58:50;;;;;;;;;;;;;;;;;;7368846;19;1357;-62
2023/05/27 14:01:19;;;;;;;;;;;;;;;;;;7368568;19;816;-63
2023/05/27 14:03:47;;;;;;;;;;;;;;;;;;7369737;19;891;-62
2023/05/27 14:06:15;;;;;;;;;;;;;;;;;;7367836;19;1876;-63
2023/05/27 14:08:44;;;;;;;;;;;;;;;;;;7367607;19;1314;-62
2023/05/27 14:11:12;;;;;;;;;;;;;;;;;;7368293;19;795;-63
2023/05/27 14:13:40;;;;;;;;;;;;;;;;;;7368995;19;873;-63
2023/05/27 14:16:08;;;;;;;;;;;;;;;;;;7368323;19;860;-63
2023/05/27 14:18:36;;;;;;;;;;;;;;;;;;7368053;19;1258;-63
2023/05/27 14:21:04;;;;;;;;;;;;;;;;;;7368807;19;879;-61
2023/05/27 14:23:33;;;;;;;;;;;;;;;;;;7368975;19;745;-61
2023/05/27 14:26:01;;;;;;;;;;;;;;;;;;7369584;19;1850;-61
2023/05/27 14:28:29;;;;;;;;;;;;;;;;;;7368240;19;1285;-59
2023/05/27 14:30:57;;;;;;;;;;;;;;;;;;7368965;19;826;-63
2023/05/27 14:33:25;;;;;;;;;;;;;;;;;;7369958;19;848;-63
2023/05/27 14:35:53;;;;;;;;;;;;;;;;;;7370206;19;771;-64
2023/05/27 14:38:22;;;;;;;;;;;;;;;;;;7368525;19;1265;-57
2023/05/27 14:40:50;;;;;;;;;;;;;;;;;;7369643;19;791;-63
2023/05/27 14:43:18;;;;;;;;;;;;;;;;;;7371456;19;1296;-60
2023/05/27 14:45:46;;;;;;;;;;;;;;;;;;7368643;19;1833;-62
2023/05/27 14:48:14;;;;;;;;;;;;;;;;;;7366857;19;1282;-60
2023/05/27 14:50:42;;;;;;;;;;;;;;;;;;7368879;19;832;-63
2023/05/27 14:53:10;;;;;;;;;;;;;;;;;;7365780;19;866;-63
2023/05/27 14:55:39;;;;;;;;;;;;;;;;;;7367705;19;815;-63
2023/05/27 14:58:07;;;;;;;;;;;;;;;;;;7367398;19;1280;-63
2023/05/27 15:00:35;;;;;;;;;;;;;;;;;;7367847;19;837;-63
2023/05/27 15:03:03;;;;;;;;;;;;;;;;;;7368371;19;797;-64
2023/05/27 15:05:31;;;;;;;;;;;;;;;;;;7367568;19;846;-63
2023/05/27 15:08:00;;;;;;;;;;;;;;;;;;7365152;19;1838;-63
2023/05/27 15:10:28;;;;;;;;;;;;;;;;;;7367930;19;838;-63
2023/05/27 15:12:56;;;;;;;;;;;;;;;;;;7367584;19;821;-64
2023/05/27 15:15:25;;;;;;;;;;;;;;;;;;7367723;19;808;-63
2023/05/27 15:17:53;;;;;;;;;;;;;;;;;;7365960;19;1284;-63
2023/05/27 15:20:21;;;;;;;;;;;;;;;;;;7367614;19;807;-62
2023/05/27 15:22:49;;;;;;;;;;;;;;;;;;7367382;19;807;-62
2023/05/27 15:25:18;;;;;;;;;;;;;;;;;;7367178;19;821;-63
2023/05/27 15:27:46;;;;;;;;;;;;;;;;;;7364548;19;1844;-63
2023/05/27 15:30:14;;;;;;;;;;;;;;;;;;7368104;19;799;-62
2023/05/27 15:32:42;;;;;;;;;;;;;;;;;;7368011;19;798;-64
2023/05/27 15:35:10;;;;;;;;;;;;;;;;;;7366624;19;938;-64
2023/05/27 15:37:38;;;;;;;;;;;;;;;;;;7364486;19;1308;-64
2023/05/27 15:40:06;;;;;;;;;;;;;;;;;;7366475;19;902;-65
2023/05/27 15:42:35;;;;;;;;;;;;;;;;;;7366289;19;790;-62
2023/05/27 15:45:03;;;;;;;;;;;;;;;;;;7367567;19;834;-65
2023/05/27 15:47:31;;;;;;;;;;;;;;;;;;7364964;19;1861;-63
2023/05/27 15:49:59;;;;;;;;;;;;;;;;;;7364018;19;1237;-63
2023/05/27 15:52:27;;;;;;;;;;;;;;;;;;7366467;19;819;-62
2023/05/27 15:54:55;;;;;;;;;;;;;;;;;;7366357;19;850;-63
2023/05/27 15:57:24;;;;;;;;;;;;;;;;;;7365115;19;758;-61
2023/05/27 15:59:52;;;;;;;;;;;;;;;;;;7363915;19;1266;-63
2023/05/27 16:02:20;;;;;;;;;;;;;;;;;;7364374;19;1528;-63
2023/05/27 16:04:49;;;;;;;;;;;;;;;;;;7366063;19;743;-61
2023/05/27 16:07:17;;;;;;;;;;;;;;;;;;7364659;19;1857;-63
2023/05/27 16:09:45;;;;;;;;;;;;;;;;;;7363752;19;1319;-61
2023/05/27 16:12:13;;;;;;;;;;;;;;;;;;7365453;19;863;-62
2023/05/27 16:14:41;;;;;;;;;;;;;;;;;;7365244;19;853;-64
2023/05/27 16:17:09;;;;;;;;;;;;;;;;;;7365766;19;824;-61
2023/05/27 16:19:37;;;;;;;;;;;;;;;;;;7360623;19;1331;-62
2023/05/27 16:22:06;;;;;;;;;;;;;;;;;;7365718;19;886;-63
2023/05/27 16:24:34;;;;;;;;;;;;;;;;;;7365345;19;842;-64
2023/05/27 16:27:02;;;;;;;;;;;;;;;;;;7366146;19;1835;-62
2023/05/27 16:29:30;;;;;;;;;;;;;;;;;;7365125;19;1328;-61
2023/05/27 16:31:58;;;;;;;;;;;;;;;;;;7364097;19;862;-60
2023/05/27 16:34:26;;;;;;;;;;;;;;;;;;7365142;19;895;-62
2023/05/27 16:36:54;;;;;;;;;;;;;;;;;;7365729;19;885;-62
2023/05/27 16:39:23;;;;;;;;;;;;;;;;;;7362622;19;1301;-61
2023/05/27 16:41:51;;;;;;;;;;;;;;;;;;7365653;19;795;-62
2023/05/27 16:44:19;;;;;;;;;;;;;;;;;;7364999;19;1003;-64
2023/05/27 16:46:47;;;;;;;;;;;;;;;;;;7364567;19;1852;-60
2023/05/27 16:49:16;;;;;;;;;;;;;;;;;;7362272;19;1291;-61
2023/05/27 16:51:44;;;;;;;;;;;;;;;;;;7365203;19;823;-62
2023/05/27 16:54:12;;;;;;;;;;;;;;;;;;7365469;19;811;-62
2023/05/27 16:56:40;;;;;;;;;;;;;;;;;;7365106;19;860;-63
2023/05/27 16:59:08;;;;;;;;;;;;;;;;;;7362173;19;1283;-63
2023/05/27 17:01:36;;;;;;;;;;;;;;;;;;7364948;19;1252;-63
2023/05/27 17:04:05;;;;;;;;;;;;;;;;;;7365168;19;714;-59
2023/05/27 17:06:34;;;;;;;;;;;;;;;;;;7364599;19;1849;-61
2023/05/27 17:09:02;;;;;;;;;;;;;;;;;;7358602;19;1286;-62
2023/05/27 17:11:30;;;;;;;;;;;;;;;;;;7364078;19;740;-63
2023/05/27 17:13:58;;;;;;;;;;;;;;;;;;7363563;19;1834;-63
2023/05/27 17:16:26;;;;;;;;;;;;;;;;;;7364100;19;1863;-61
2023/05/27 17:18:54;;;;;;;;;;;;;;;;;;7365888;19;1405;-61
2023/05/27 17:21:23;;;;;;;;;;;;;;;;;;7365309;19;1818;-63
2023/05/27 17:23:51;;;;;;;;;;;;;;;;;;7365676;19;1854;-63
2023/05/27 17:26:21;;;;;;;;;;;;;;;;;;7361614;19;2303;-61
2023/05/27 17:28:49;;;;;;;;;;;;;;;;;;7361326;19;1949;-62